Time;durP1;ratioP1;P1;durP2;ratioP2;P2;SDS_P1;SDS_P2;PMS_P1;PMS_P2;Temp;Humidity;BMP_temperature;BMP_pressure;BME280_temperature;BME280_humidity;BME280_pressure;Samples;Min_cycle;Max_cycle;Signal;HPM_P1;HPM_P2
2023/07/19 00:00:52;;;;;;;5.10;1.93;;;;;;;17.06;92.50;155700.84;4935497;29;20063;-74
2023/07/19 00:03:17;;;;;;;3.50;1.90;;;;;;;17.01;92.97;155689.13;4936161;29;20068;-73
2023/07/19 00:05:42;;;;;;;7.93;1.70;;;;;;;16.90;94.24;155660.53;4933497;29;20036;-73
2023/07/19 00:08:08;;;;;;;11.83;1.73;;;;;;;16.93;93.33;155668.34;4936628;29;20040;-74
2023/07/19 00:10:33;;;;;;;3.73;1.50;;;;;;;16.96;93.58;155674.84;4932847;29;20047;-73
2023/07/19 00:12:58;;;;;;;7.37;2.10;;;;;;;16.91;93.38;155663.09;4915504;29;20111;-74
2023/07/19 00:15:24;;;;;;;4.97;1.83;;;;;;;16.84;94.72;155644.91;4916523;29;20066;-74
2023/07/19 00:17:50;;;;;;;6.15;1.98;;;;;;;16.86;95.51;155648.81;4914838;29;20122;-73
2023/07/19 00:20:15;;;;;;;10.47;2.27;;;;;;;16.86;95.87;155648.81;4915090;29;20032;-73
2023/07/19 00:22:41;;;;;;;5.27;2.03;;;;;;;16.81;95.45;155635.81;4897765;29;20028;-74
2023/07/19 00:25:06;;;;;;;6.83;3.17;;;;;;;16.77;97.13;155625.38;4912120;29;20040;-73
2023/07/19 00:27:32;;;;;;;4.60;1.50;;;;;;;16.82;97.51;155638.41;4898887;29;20145;-73
2023/07/19 00:29:58;;;;;;;6.47;2.13;;;;;;;16.85;97.49;155646.19;4914431;29;20035;-73
2023/07/19 00:32:23;;;;;;;8.18;1.88;;;;;;;16.87;97.37;155652.69;4913635;29;20503;-73
2023/07/19 00:34:49;;;;;;;9.77;2.00;;;;;;;16.94;97.20;155669.63;4916127;29;20040;-73
2023/07/19 00:37:14;;;;;;;6.37;1.90;;;;;;;16.93;97.68;155668.34;4897660;29;20393;-73
2023/07/19 00:39:39;;;;;;;7.73;2.03;;;;;;;16.96;97.55;155674.84;4898099;29;20024;-73
2023/07/19 00:42:05;;;;;;;4.83;1.40;;;;;;;16.95;98.56;155673.53;4899106;29;20548;-73
2023/07/19 00:44:30;;;;;;;10.80;2.70;;;;;;;16.96;98.50;155674.84;4905360;29;20024;-73
2023/07/19 00:46:58;;;;;;;5.80;2.00;;;;;;;16.93;99.11;155668.34;4917397;29;20396;-73
2023/07/19 00:49:24;;;;;;;7.28;1.85;;;;;;;16.86;99.04;155650.09;4916726;29;20107;-73
2023/07/19 00:51:49;;;;;;;6.23;1.93;;;;;;;16.94;98.75;155670.94;4911128;29;20052;-73
2023/07/19 00:54:15;;;;;;;5.33;1.60;;;;;;;16.89;99.28;155656.59;4898196;29;20381;-73
2023/07/19 00:56:43;;;;;;;4.32;1.85;;;;;;;16.73;100.00;155616.28;4896831;29;20115;-73
2023/07/19 00:59:12;;;;;;;5.22;1.70;;;;;;;16.81;100.00;155635.81;4915766;29;20043;-73
2023/07/19 01:01:38;;;;;;;9.85;1.70;;;;;;;16.83;99.36;155641.00;4899406;29;20413;-73
2023/07/19 01:04:03;;;;;;;8.23;1.97;;;;;;;16.87;99.93;155651.41;4900889;29;20036;-73
2023/07/19 01:06:28;;;;;;;6.13;2.37;;;;;;;16.92;99.08;155665.69;4905471;29;20036;-73
2023/07/19 01:08:54;;;;;;;4.83;1.90;;;;;;;16.98;100.00;155680.03;4914713;29;20036;-73
2023/07/19 01:11:19;;;;;;;4.30;2.27;;;;;;;17.00;99.66;155686.53;4903232;29;20052;-72
2023/07/19 01:13:54;;;;;;;4.87;1.90;;;;;;;17.10;99.32;155712.56;4913441;29;20540;-73
2023/07/19 01:16:20;;;;;;;4.30;1.90;;;;;;;17.14;99.29;155721.69;4913648;29;20032;-73
2023/07/19 01:18:46;;;;;;;4.50;1.80;;;;;;;17.17;99.58;155729.47;4916164;29;20087;-73
2023/07/19 01:21:12;;;;;;;8.23;2.47;;;;;;;17.18;99.61;155732.09;4913235;29;20028;-73
2023/07/19 01:23:39;;;;;;;5.40;2.10;;;;;;;17.18;99.89;155732.09;4915428;29;20091;-72
2023/07/19 01:26:04;;;;;;;11.63;2.40;;;;;;;17.17;100.00;155729.47;4914107;29;20431;-73
2023/07/19 01:28:30;;;;;;;8.07;2.33;;;;;;;17.20;100.00;155738.59;4915058;29;20523;-73
2023/07/19 01:30:55;;;;;;;9.70;1.90;;;;;;;17.17;100.00;155730.78;4912797;29;20040;-72
2023/07/19 01:33:21;;;;;;;10.13;2.33;;;;;;;17.21;100.00;155739.88;4915721;29;20029;-73
2023/07/19 01:35:46;;;;;;;3.60;1.70;;;;;;;17.20;100.00;155737.28;4913354;29;20024;-72
2023/07/19 01:38:11;;;;;;;8.63;2.07;;;;;;;17.22;100.00;155742.47;4919613;29;20080;-73
2023/07/19 01:40:37;;;;;;;9.43;2.40;;;;;;;17.18;100.00;155732.09;4913499;29;20043;-73
2023/07/19 01:43:02;;;;;;;6.13;2.47;;;;;;;17.15;99.86;155725.59;4913690;29;20028;-73
2023/07/19 01:45:28;;;;;;;8.80;1.80;;;;;;;17.18;100.00;155732.09;4911779;29;20031;-72
2023/07/19 01:47:53;;;;;;;8.33;2.10;;;;;;;17.18;100.00;155732.09;4910229;29;20023;-73
2023/07/19 01:50:18;;;;;;;4.90;1.63;;;;;;;17.17;99.02;155729.47;4913181;29;20035;-73
2023/07/19 01:52:44;;;;;;;9.83;1.93;;;;;;;17.18;98.65;155732.09;4913794;29;20404;-72
2023/07/19 01:55:10;;;;;;;;;;;;;;;17.20;98.00;155737.28;4911540;29;20464;-73
2023/07/19 01:57:36;;;;;;;4.13;2.15;;;;;;;17.22;97.35;155742.47;4912761;29;19919;-73
2023/07/19 02:00:03;;;;;;;5.70;2.40;;;;;;;17.27;97.37;155755.50;4912407;29;20050;-73
2023/07/19 02:02:29;;;;;;;9.55;2.50;;;;;;;17.28;96.83;155759.41;4914039;29;20043;-73
2023/07/19 02:04:54;;;;;;;5.27;1.80;;;;;;;17.30;96.35;155763.31;4913076;29;20170;-73
2023/07/19 02:07:20;;;;;;;11.40;2.13;;;;;;;17.30;95.77;155763.31;4912321;29;20512;-73
2023/07/19 02:09:46;;;;;;;12.53;2.70;;;;;;;17.32;95.38;155768.50;4912559;29;20120;-73
2023/07/19 02:12:11;;;;;;;12.82;2.70;;;;;;;17.29;96.01;155760.72;4914510;29;20044;-72
2023/07/19 02:14:37;;;;;;;8.40;2.37;;;;;;;17.32;95.19;155768.50;4896095;29;20465;-73
2023/07/19 02:17:02;;;;;;;8.33;3.00;;;;;;;17.36;94.27;155780.25;4913992;29;20072;-72
2023/07/19 02:19:28;;;;;;;7.80;2.33;;;;;;;17.37;94.64;155782.84;4909383;29;20182;-73
2023/07/19 02:21:53;;;;;;;11.17;2.60;;;;;;;17.39;94.63;155788.09;4896708;29;20142;-73
2023/07/19 02:24:19;;;;;;;6.30;2.50;;;;;;;17.49;94.04;155814.13;4914095;29;20063;-73
2023/07/19 02:26:44;;;;;;;8.23;3.47;;;;;;;17.49;93.67;155812.81;4912430;29;20062;-72
2023/07/19 02:29:09;;;;;;;14.23;2.60;;;;;;;17.51;93.53;155818.03;4897435;29;20079;-72
2023/07/19 02:31:35;;;;;;;10.73;3.40;;;;;;;17.53;92.87;155823.22;4912160;29;20099;-73
2023/07/19 02:34:01;;;;;;;9.57;2.90;;;;;;;17.60;92.06;155841.50;4913659;29;20032;-73
2023/07/19 02:36:27;;;;;;;8.95;3.00;;;;;;;17.63;91.57;155849.28;4910426;29;20040;-73
2023/07/19 02:38:52;;;;;;;8.33;3.43;;;;;;;17.58;92.42;155836.25;4899319;29;20028;-73
2023/07/19 02:41:18;;;;;;;8.80;3.40;;;;;;;17.58;92.82;155837.56;4910893;29;20178;-73
2023/07/19 02:43:43;;;;;;;9.90;3.20;;;;;;;17.59;93.19;155838.84;4914836;29;20066;-73
2023/07/19 02:46:09;;;;;;;4.57;2.80;;;;;;;17.55;93.05;155828.47;4910789;29;20110;-74
2023/07/19 02:48:34;;;;;;;9.10;3.13;;;;;;;17.52;93.77;155820.63;4897553;29;20066;-73
2023/07/19 02:51:00;;;;;;;10.60;3.30;;;;;;;17.49;94.10;155814.13;4910682;29;20036;-73
2023/07/19 02:53:25;;;;;;;14.20;3.47;;;;;;;17.48;93.98;155811.53;4906143;29;20396;-73
2023/07/19 02:55:51;;;;;;;5.83;3.13;;;;;;;17.46;93.93;155805.03;4891263;29;20103;-74
2023/07/19 02:58:16;;;;;;;8.30;2.90;;;;;;;17.43;93.97;155798.50;4911313;29;20116;-74
2023/07/19 03:00:43;;;;;;;9.83;2.87;;;;;;;17.42;94.78;155795.91;4913543;29;20393;-73
2023/07/19 03:03:12;;;;;;;4.85;2.50;;;;;;;17.44;95.22;155799.84;4914789;29;20106;-73
2023/07/19 03:05:42;;;;;;;10.02;3.17;;;;;;;17.47;95.38;155808.94;4901358;29;20115;-73
2023/07/19 03:08:08;;;;;;;9.55;3.78;;;;;;;17.42;95.79;155795.91;4914501;29;20047;-73
2023/07/19 03:10:34;;;;;;;12.27;3.83;;;;;;;17.46;95.10;155806.28;4913749;29;20024;-74
2023/07/19 03:13:00;;;;;;;10.90;5.22;;;;;;;17.44;95.50;155799.84;4914598;29;20036;-73
2023/07/19 03:15:25;;;;;;;11.83;3.73;;;;;;;17.42;95.62;155794.59;4892554;29;20068;-73
2023/07/19 03:17:50;;;;;;;9.47;4.10;;;;;;;17.47;95.18;155808.94;4890519;29;20040;-73
2023/07/19 03:20:16;;;;;;;6.23;4.03;;;;;;;17.46;95.08;155805.03;4912697;29;20063;-73
2023/07/19 03:22:41;;;;;;;12.43;3.17;;;;;;;17.46;94.99;155805.03;4915161;29;20087;-73
2023/07/19 03:25:07;;;;;;;16.33;3.47;;;;;;;17.44;94.35;155799.84;4911628;29;20484;-73
2023/07/19 03:27:32;;;;;;;13.83;4.10;;;;;;;17.46;94.58;155805.03;4914684;29;20029;-73
2023/07/19 03:29:58;;;;;;;9.37;3.60;;;;;;;17.40;95.08;155789.41;4913002;29;20144;-73
2023/07/19 03:32:23;;;;;;;7.10;3.00;;;;;;;17.41;95.12;155793.31;4895821;29;20031;-73
2023/07/19 03:34:49;;;;;;;8.27;2.70;;;;;;;17.43;95.10;155797.19;4914298;29;20039;-74
2023/07/19 03:37:14;;;;;;;10.20;3.17;;;;;;;17.51;94.06;155818.03;4896352;29;20115;-73
2023/07/19 03:39:39;;;;;;;7.90;3.10;;;;;;;17.50;94.32;155816.72;4915181;29;20404;-72
2023/07/19 03:42:05;;;;;;;13.60;4.40;;;;;;;17.54;94.40;155825.81;4911933;29;20504;-73
2023/07/19 03:44:30;;;;;;;10.27;3.00;;;;;;;17.53;94.57;155823.22;4913510;29;20059;-73
2023/07/19 03:46:56;;;;;;;4.77;2.70;;;;;;;17.49;94.90;155812.81;4895178;29;20378;-74
2023/07/19 03:49:21;;;;;;;8.47;3.50;;;;;;;17.41;95.97;155792.00;4915151;29;20034;-73
2023/07/19 03:51:47;;;;;;;8.40;2.60;;;;;;;17.42;95.33;155795.91;4910910;29;20037;-73
2023/07/19 03:54:12;;;;;;;5.77;2.63;;;;;;;17.42;95.20;155794.59;4900164;29;20499;-73
2023/07/19 03:56:37;;;;;;;9.83;2.70;;;;;;;17.42;95.43;155795.91;4898754;29;20039;-73
2023/07/19 03:59:03;;;;;;;4.77;2.43;;;;;;;17.45;95.22;155802.44;4899796;29;20489;-73
2023/07/19 04:01:28;;;;;;;10.13;2.67;;;;;;;17.46;95.74;155805.03;4912395;29;20095;-73
2023/07/19 04:03:54;;;;;;;9.50;2.43;;;;;;;17.53;94.94;155824.56;4918599;29;20112;-73
2023/07/19 04:06:19;;;;;;;12.27;3.03;;;;;;;17.48;95.06;155811.53;4914206;29;20500;-73
2023/07/19 04:08:44;;;;;;;6.90;2.77;;;;;;;17.48;94.54;155810.22;4916579;29;20036;-73
2023/07/19 04:11:10;;;;;;;6.63;2.37;;;;;;;17.52;94.66;155821.97;4900159;29;20051;-73
2023/07/19 04:13:35;;;;;;;9.60;2.60;;;;;;;17.53;94.14;155823.22;4913142;29;21183;-73
2023/07/19 04:16:01;;;;;;;10.63;3.10;;;;;;;17.51;93.98;155818.03;4914701;29;20039;-73
2023/07/19 04:18:26;;;;;;;5.30;2.53;;;;;;;17.54;94.44;155825.81;4915844;29;20112;-73
2023/07/19 04:20:56;;;;;;;12.17;4.53;;;;;;;17.58;93.49;155836.25;4915858;29;20029;-73
2023/07/19 04:23:22;;;;;;;6.90;2.33;;;;;;;17.57;93.22;155834.97;4916194;29;20506;-73
2023/07/19 04:25:49;;;;;;;10.20;2.63;;;;;;;17.61;93.51;155844.09;4914619;29;20028;-73
2023/07/19 04:28:14;;;;;;;;;;;;;;;17.67;92.99;155859.69;4914926;29;20031;-74
2023/07/19 04:30:39;;;;;;;6.68;2.95;;;;;;;17.67;93.00;155860.97;4911765;29;19927;-73
2023/07/19 04:33:05;;;;;;;7.43;2.80;;;;;;;17.69;93.46;155864.88;4923267;29;20107;-73
2023/07/19 04:35:30;;;;;;;9.20;3.47;;;;;;;17.73;92.74;155875.31;4914045;29;20492;-73
2023/07/19 04:37:55;;;;;;;6.60;2.50;;;;;;;17.76;92.59;155883.16;4916189;29;20039;-73
2023/07/19 04:40:21;;;;;;;7.60;3.77;;;;;;;17.75;92.72;155881.81;4921385;29;20028;-73
2023/07/19 04:42:48;;;;;;;5.87;2.50;;;;;;;17.71;93.25;155870.13;4916290;29;20488;-72
2023/07/19 04:45:14;;;;;;;8.35;2.97;;;;;;;17.79;93.21;155890.94;4915006;29;20028;-73
2023/07/19 04:47:39;;;;;;;8.13;3.20;;;;;;;17.78;93.50;155889.59;4914279;29;20040;-72
2023/07/19 04:50:08;;;;;;;7.87;4.27;;;;;;;17.83;93.35;155902.63;4913136;29;20032;-72
2023/07/19 04:52:34;;;;;;;10.32;4.10;;;;;;;17.95;93.49;155933.91;4916575;29;20043;-73
2023/07/19 04:55:04;;;;;;;7.90;3.03;;;;;;;18.00;92.81;155946.94;4914621;29;20484;-73
2023/07/19 04:57:30;;;;;;;9.80;2.88;;;;;;;18.10;92.77;155971.66;4914795;29;20286;-72
2023/07/19 04:59:55;;;;;;;11.67;3.57;;;;;;;18.16;92.26;155987.28;4913638;29;20040;-73
2023/07/19 05:02:21;;;;;;;6.73;3.07;;;;;;;18.17;92.55;155991.22;4913491;29;20270;-72
2023/07/19 05:04:46;;;;;;;8.33;3.57;;;;;;;18.31;91.89;156027.66;4915131;29;20710;-72
2023/07/19 05:07:12;;;;;;;8.60;3.40;;;;;;;18.38;91.67;156045.97;4914375;29;20536;-72
2023/07/19 05:09:37;;;;;;;11.10;3.60;;;;;;;18.37;91.68;156042.03;4916214;29;20035;-72
2023/07/19 05:12:02;;;;;;;10.20;3.57;;;;;;;18.40;91.31;156049.88;4912650;29;20055;-73
2023/07/19 05:14:28;;;;;;;7.90;2.97;;;;;;;18.48;91.08;156072.03;4915681;29;20095;-73
2023/07/19 05:16:53;;;;;;;7.67;3.33;;;;;;;18.45;91.08;156062.84;4910524;29;20024;-73
2023/07/19 05:19:19;;;;;;;10.17;3.40;;;;;;;18.54;91.23;156086.31;4916303;29;20044;-72
2023/07/19 05:21:44;;;;;;;9.37;3.20;;;;;;;18.62;91.01;156107.19;4910648;29;20036;-72
2023/07/19 05:24:11;;;;;;;11.20;3.73;;;;;;;18.66;90.68;156118.91;4912554;29;20052;-72
2023/07/19 05:26:37;;;;;;;9.02;3.30;;;;;;;18.73;89.99;156135.84;4910924;29;20115;-72
2023/07/19 05:29:03;;;;;;;12.60;3.42;;;;;;;18.72;89.81;156134.53;4913615;29;20124;-72
2023/07/19 05:31:29;;;;;;;6.40;3.10;;;;;;;18.89;89.48;156177.53;4913003;29;20028;-72
2023/07/19 05:33:54;;;;;;;6.60;3.27;;;;;;;18.85;89.51;156168.44;4915374;29;20139;-72
2023/07/19 05:36:19;;;;;;;11.13;3.70;;;;;;;18.94;89.00;156190.59;4914946;29;20130;-72
2023/07/19 05:38:45;;;;;;;8.07;3.00;;;;;;;18.92;88.56;156186.66;4913014;29;20114;-72
2023/07/19 05:41:10;;;;;;;10.43;3.80;;;;;;;18.93;88.75;156187.94;4912572;29;20036;-72
2023/07/19 05:43:36;;;;;;;11.80;3.17;;;;;;;18.98;88.12;156202.28;4912223;29;20028;-72
2023/07/19 05:46:05;;;;;;;10.87;3.50;;;;;;;19.02;88.08;156212.72;4913750;29;20032;-72
2023/07/19 05:48:30;;;;;;;8.88;3.20;;;;;;;19.15;87.85;156246.59;4912880;29;20070;-72
2023/07/19 05:50:56;;;;;;;9.30;3.10;;;;;;;19.07;87.36;156225.75;4912995;29;20438;-72
2023/07/19 05:53:21;;;;;;;11.80;3.87;;;;;;;18.98;87.92;156200.97;4915164;29;20028;-72
2023/07/19 05:55:46;;;;;;;7.40;2.90;;;;;;;19.02;88.50;156211.41;4914540;29;20024;-72
2023/07/19 05:58:12;;;;;;;15.03;3.70;;;;;;;20.10;85.07;156493.09;4911751;29;20108;-72
2023/07/19 06:00:40;;;;;;;8.23;3.90;;;;;;;20.27;83.23;156537.47;4914444;29;20370;-72
2023/07/19 06:03:05;;;;;;;14.57;4.00;;;;;;;20.70;80.75;156650.94;4912591;29;20146;-72
2023/07/19 06:05:30;;;;;;;6.77;2.90;;;;;;;20.42;81.10;156577.91;4904065;29;20216;-72
2023/07/19 06:07:56;;;;;;;8.60;3.27;;;;;;;20.91;80.00;156705.81;4912514;29;20032;-72
2023/07/19 06:10:21;;;;;;;10.73;3.73;;;;;;;21.35;77.20;156819.38;4926778;29;20040;-72
2023/07/19 06:12:47;;;;;;;10.73;3.10;;;;;;;22.06;75.52;157004.84;4911675;29;20096;-72
2023/07/19 06:15:12;;;;;;;8.87;3.80;;;;;;;23.01;73.38;157254.47;4911802;29;20512;-71
2023/07/19 06:17:38;;;;;;;8.47;2.80;;;;;;;22.77;69.97;157190.38;4914275;29;20572;-72
2023/07/19 06:20:04;;;;;;;11.23;3.27;;;;;;;22.04;72.98;157000.91;4911601;29;20090;-72
2023/07/19 06:22:30;;;;;;;10.65;3.03;;;;;;;23.11;71.70;157279.28;4911557;29;20032;-72
2023/07/19 06:24:57;;;;;;;10.70;3.70;;;;;;;23.26;70.53;157319.84;4909081;29;20032;-72
2023/07/19 06:27:23;;;;;;;9.30;2.90;;;;;;;22.66;71.12;157162.97;4909663;29;20453;-72
2023/07/19 06:29:50;;;;;;;11.40;2.80;;;;;;;22.54;71.21;157130.28;4904585;29;20131;-72
2023/07/19 06:32:15;;;;;;;9.50;3.00;;;;;;;22.22;72.88;157047.97;4911037;29;20040;-72
2023/07/19 06:34:41;;;;;;;9.13;3.57;;;;;;;21.55;75.32;156871.63;4914710;29;20035;-72
2023/07/19 06:37:06;;;;;;;11.57;3.47;;;;;;;21.47;76.44;156850.69;4913855;29;20034;-72
2023/07/19 06:39:31;;;;;;;7.17;2.93;;;;;;;21.01;78.51;156731.91;4912785;29;20056;-72
2023/07/19 06:41:57;;;;;;;15.57;3.60;;;;;;;21.35;78.74;156819.38;4914732;29;20123;-72
2023/07/19 06:44:22;;;;;;;10.77;2.90;;;;;;;21.56;78.41;156875.50;4913514;29;20038;-72
2023/07/19 06:46:47;;;;;;;12.07;3.53;;;;;;;21.22;79.15;156785.41;4915284;29;20520;-72
2023/07/19 06:49:13;;;;;;;11.63;3.63;;;;;;;21.48;79.77;156853.31;4912657;29;20051;-72
2023/07/19 06:51:38;;;;;;;9.67;2.93;;;;;;;21.74;78.73;156922.59;4915391;29;20039;-72
2023/07/19 06:54:04;;;;;;;8.30;3.03;;;;;;;22.03;76.80;156997.03;4913693;29;20122;-72
2023/07/19 06:56:29;;;;;;;9.33;3.00;;;;;;;21.75;79.52;156925.19;4912781;29;20048;-72
2023/07/19 06:58:55;;;;;;;13.67;2.93;;;;;;;21.48;81.68;156854.63;4913326;29;20032;-72
2023/07/19 07:01:20;;;;;;;9.47;2.93;;;;;;;22.02;82.19;156994.38;4913555;29;20036;-72
2023/07/19 07:03:45;;;;;;;8.33;3.20;;;;;;;21.98;80.56;156985.25;4911329;29;20028;-71
2023/07/19 07:06:11;;;;;;;9.97;3.10;;;;;;;21.68;81.25;156905.59;4906459;29;20497;-72
2023/07/19 07:08:36;;;;;;;10.80;3.00;;;;;;;21.49;81.91;156855.91;4917966;29;20028;-72
2023/07/19 07:11:02;;;;;;;9.27;3.20;;;;;;;21.32;81.45;156812.84;4909414;29;20701;-71
2023/07/19 07:13:28;;;;;;;9.07;3.05;;;;;;;21.09;82.19;156751.50;4912274;29;20032;-71
2023/07/19 07:15:53;;;;;;;8.03;2.80;;;;;;;20.95;82.46;156716.25;4911748;29;20025;-71
2023/07/19 07:18:18;;;;;;;10.03;3.43;;;;;;;20.85;82.97;156688.78;4893328;29;20028;-71
2023/07/19 07:20:45;;;;;;;10.10;2.87;;;;;;;20.75;83.38;156662.72;4911595;29;20043;-71
2023/07/19 07:23:10;;;;;;;7.18;2.70;;;;;;;20.88;82.92;156696.63;4893885;29;20021;-72
2023/07/19 07:25:36;;;;;;;6.93;2.70;;;;;;;20.89;82.94;156699.28;4911673;29;20042;-72
2023/07/19 07:28:02;;;;;;;6.30;2.85;;;;;;;20.79;82.21;156674.44;4917097;29;20036;-71
2023/07/19 07:30:27;;;;;;;8.32;2.92;;;;;;;20.87;81.41;156695.31;4913448;29;20464;-71
2023/07/19 07:32:52;;;;;;;11.00;2.70;;;;;;;21.15;80.16;156767.16;4909978;29;20035;-71
2023/07/19 07:35:19;;;;;;;10.47;2.87;;;;;;;21.19;80.06;156778.88;4909165;29;20115;-71
2023/07/19 07:37:44;;;;;;;9.05;2.85;;;;;;;21.01;82.49;156730.59;4914560;29;20036;-71
2023/07/19 07:40:11;;;;;;;10.10;3.00;;;;;;;20.88;83.10;156696.63;4907192;29;20028;-71
2023/07/19 07:42:36;;;;;;;;;;;;;;;21.10;82.21;156755.44;4913429;29;20462;-71
2023/07/19 07:45:02;;;;;;;11.10;3.25;;;;;;;21.59;80.70;156882.03;4915565;29;19915;-71
2023/07/19 07:47:28;;;;;;;14.30;3.03;;;;;;;22.08;77.62;157011.38;4920004;29;20039;-71
2023/07/19 07:49:54;;;;;;;9.50;2.83;;;;;;;22.02;77.44;156995.69;4913505;29;20028;-70
2023/07/19 07:52:20;;;;;;;11.52;3.47;;;;;;;22.57;74.55;157138.16;4914564;29;20062;-71
2023/07/19 07:54:45;;;;;;;11.18;3.17;;;;;;;22.78;73.81;157194.31;4913294;29;20028;-71
2023/07/19 07:57:11;;;;;;;9.30;2.70;;;;;;;23.21;72.30;157306.78;4914478;29;20036;-71
2023/07/19 07:59:36;;;;;;;10.83;3.27;;;;;;;22.99;72.98;157247.94;4916526;29;20056;-71
2023/07/19 08:02:02;;;;;;;8.40;2.80;;;;;;;22.63;72.74;157155.09;4914205;29;20374;-71
2023/07/19 08:04:27;;;;;;;12.80;3.17;;;;;;;21.96;75.25;156978.72;4916836;29;20385;-71
2023/07/19 08:06:53;;;;;;;9.43;3.17;;;;;;;22.27;74.88;157061.03;4915454;29;20078;-72
2023/07/19 08:09:19;;;;;;;12.25;2.72;;;;;;;22.65;72.84;157160.38;4918484;29;20050;-71
2023/07/19 08:11:45;;;;;;;5.53;2.60;;;;;;;23.00;70.87;157250.53;4900578;29;20048;-72
2023/07/19 08:14:10;;;;;;;10.17;3.03;;;;;;;22.74;69.48;157182.56;4914664;29;20118;-72
2023/07/19 08:16:35;;;;;;;12.17;3.30;;;;;;;22.39;70.08;157091.03;4915252;29;20035;-72
2023/07/19 08:19:01;;;;;;;16.07;3.23;;;;;;;22.29;70.83;157064.91;4915876;29;20115;-72
2023/07/19 08:21:26;;;;;;;10.27;2.67;;;;;;;22.61;69.48;157148.56;4916165;29;20529;-71
2023/07/19 08:23:55;;;;;;;6.67;2.40;;;;;;;22.76;68.95;157187.78;4913925;29;20032;-72
2023/07/19 08:26:21;;;;;;;9.15;2.88;;;;;;;22.71;68.15;157176.03;4913066;29;20032;-71
2023/07/19 08:28:46;;;;;;;11.37;2.57;;;;;;;22.61;67.91;157149.91;4912215;29;20115;-71
2023/07/19 08:31:12;;;;;;;9.10;3.00;;;;;;;23.02;67.77;157255.75;4916103;29;20361;-71
2023/07/19 08:33:37;;;;;;;11.90;3.77;;;;;;;23.09;65.30;157274.03;4915693;29;20396;-71
2023/07/19 08:36:02;;;;;;;8.63;2.00;;;;;;;22.67;65.04;157164.31;4915313;29;20032;-71
2023/07/19 08:38:28;;;;;;;8.00;2.63;;;;;;;23.03;65.32;157258.34;4915933;29;20040;-71
2023/07/19 08:41:03;;;;;;;7.57;3.60;;;;;;;23.62;64.65;157414.00;4916661;29;20123;-71
2023/07/19 08:43:31;;;;;;;11.18;3.30;;;;;;;23.42;64.70;157361.69;4911569;29;20092;-71
2023/07/19 08:45:57;;;;;;;6.47;2.75;;;;;;;23.61;63.19;157411.38;4916152;29;20036;-71
2023/07/19 08:48:22;;;;;;;7.18;2.83;;;;;;;23.79;63.39;157457.16;4915967;29;20031;-71
2023/07/19 08:50:55;;;;;;;11.45;3.17;;;;;;;23.97;62.53;157504.28;4916584;29;20036;-71
2023/07/19 08:53:22;;;;;;;7.63;2.55;;;;;;;23.48;63.34;157377.38;4915593;29;20064;-71
2023/07/19 08:55:48;;;;;;;9.27;2.25;;;;;;;23.54;63.27;157391.78;4915739;29;20031;-71
2023/07/19 08:58:15;;;;;;;8.52;2.83;;;;;;;23.27;63.94;157322.44;4914276;29;20401;-71
2023/07/19 09:00:40;;;;;;;7.05;2.78;;;;;;;23.55;63.73;157394.38;4898345;29;20088;-71
2023/07/19 09:03:06;;;;;;;8.13;2.40;;;;;;;23.56;64.20;157396.97;4913130;29;20446;-71
2023/07/19 09:05:34;;;;;;;7.90;2.60;;;;;;;23.20;63.28;157304.16;4915339;29;20028;-71
2023/07/19 09:08:00;;;;;;;8.18;2.83;;;;;;;22.89;65.55;157223.06;4915272;29;20042;-71
2023/07/19 09:10:26;;;;;;;8.73;2.53;;;;;;;22.37;68.84;157087.16;4917642;29;20563;-71
2023/07/19 09:12:51;;;;;;;9.30;2.40;;;;;;;22.46;68.77;157109.41;4919118;29;20044;-71
2023/07/19 09:15:16;;;;;;;8.03;2.37;;;;;;;23.19;67.77;157301.56;4917475;29;20036;-71
2023/07/19 09:17:47;;;;;;;7.70;2.47;;;;;;;23.42;65.74;157361.69;4916310;29;20035;-71
2023/07/19 09:20:14;;;;;;;6.20;2.38;;;;;;;23.53;64.49;157390.44;4895829;29;20039;-71
2023/07/19 09:22:41;;;;;;;8.68;2.50;;;;;;;23.26;64.92;157318.56;4897356;29;20492;-71
2023/07/19 09:25:09;;;;;;;8.48;2.42;;;;;;;23.49;63.24;157380.03;4914638;29;20127;-71
2023/07/19 09:27:35;;;;;;;7.05;2.15;;;;;;;23.23;64.86;157310.69;4897696;29;20114;-71
2023/07/19 09:30:03;;;;;;;9.02;2.40;;;;;;;23.27;65.56;157322.44;4916144;29;20032;-71
2023/07/19 09:32:29;;;;;;;9.02;2.40;;;;;;;23.44;65.47;157365.63;4914868;29;20067;-71
2023/07/19 09:34:56;;;;;;;7.10;2.28;;;;;;;23.51;64.73;157385.22;4915647;29;20507;-71
2023/07/19 09:37:23;;;;;;;12.48;3.10;;;;;;;23.44;65.07;157365.63;4910759;29;20477;-71
2023/07/19 09:39:49;;;;;;;6.70;2.72;;;;;;;23.70;63.87;157434.88;4914065;29;20099;-71
2023/07/19 09:42:17;;;;;;;9.75;2.10;;;;;;;23.65;61.00;157421.84;4915822;29;20032;-71
2023/07/19 09:44:44;;;;;;;17.15;2.90;;;;;;;23.51;62.72;157383.91;4914683;29;20031;-71
2023/07/19 09:47:10;;;;;;;7.65;3.28;;;;;;;23.38;62.48;157349.94;4915287;29;20059;-71
2023/07/19 09:49:39;;;;;;;6.15;2.13;;;;;;;23.32;63.59;157335.53;4897000;29;20028;-71
2023/07/19 09:52:05;;;;;;;8.63;2.40;;;;;;;23.27;64.57;157321.19;4914996;29;20032;-71
2023/07/19 09:54:33;;;;;;;5.97;2.33;;;;;;;23.47;64.27;157373.47;4914124;29;20071;-71
2023/07/19 09:57:02;;;;;;;8.45;2.65;;;;;;;23.73;63.28;157441.44;4898044;29;20040;-71
2023/07/19 09:59:33;;;;;;;6.60;2.20;;;;;;;23.49;63.43;157380.03;4914146;29;20035;-72
2023/07/19 10:01:59;;;;;;;6.88;3.10;;;;;;;23.78;62.33;157454.50;4896785;29;20509;-71
2023/07/19 10:04:27;;;;;;;9.47;2.60;;;;;;;24.59;61.09;157666.56;4912697;29;20050;-71
2023/07/19 10:07:03;;;;;;;14.05;3.22;;;;;;;24.56;60.83;157658.66;4898517;29;20277;-71
2023/07/19 10:09:28;;;;;;;15.60;3.03;;;;;;;24.61;60.92;157671.78;4912986;29;20036;-71
2023/07/19 10:11:58;;;;;;;9.57;2.50;;;;;;;24.15;61.46;157552.69;4914579;29;20406;-71
2023/07/19 10:14:27;;;;;;;11.38;2.45;;;;;;;24.34;60.37;157601.09;4913168;29;20036;-71
2023/07/19 10:16:57;;;;;;;10.48;2.63;;;;;;;23.93;60.75;157493.81;4913204;29;20031;-71
2023/07/19 10:19:23;;;;;;;9.60;2.25;;;;;;;23.67;62.71;157425.75;4913837;29;20036;-71
2023/07/19 10:22:06;;;;;;;10.65;2.55;;;;;;;23.28;63.64;157323.78;4896938;29;20039;-72
2023/07/19 10:24:35;;;;;;;10.50;2.78;;;;;;;23.46;63.99;157372.16;4910301;29;20028;-71
2023/07/19 10:27:06;;;;;;;11.57;2.58;;;;;;;23.22;64.43;157308.09;4910080;29;20413;-71
2023/07/19 10:29:42;;;;;;;15.18;2.40;;;;;;;23.39;63.88;157353.88;4892956;29;20024;-71
2023/07/19 10:32:08;;;;;;;8.10;2.33;;;;;;;23.38;62.55;157351.22;4911223;29;20393;-71
2023/07/19 10:34:34;;;;;;;5.50;2.03;;;;;;;23.39;61.44;157353.88;4914831;29;20035;-71
2023/07/19 10:37:02;;;;;;;7.72;2.30;;;;;;;23.73;61.52;157441.44;4904709;29;20032;-71
2023/07/19 10:39:28;;;;;;;8.00;2.63;;;;;;;23.69;61.63;157431.00;4912110;29;20111;-71
2023/07/19 10:41:53;;;;;;;9.20;2.30;;;;;;;23.68;61.58;157428.41;4914972;29;20503;-71
2023/07/19 10:44:20;;;;;;;7.03;2.30;;;;;;;23.58;59.98;157402.25;4912073;29;20158;-71
2023/07/19 10:46:46;;;;;;;6.00;1.75;;;;;;;23.73;59.25;157441.44;4906828;29;20504;-71
2023/07/19 10:49:11;;;;;;;10.63;2.23;;;;;;;23.42;60.24;157360.41;4908469;29;20024;-71
2023/07/19 10:51:37;;;;;;;3.60;1.80;;;;;;;22.84;61.11;157208.72;4912266;29;20469;-71
2023/07/19 10:54:02;;;;;;;9.93;2.23;;;;;;;22.84;62.51;157210.00;4914143;29;20111;-70
2023/07/19 10:56:28;;;;;;;12.80;2.20;;;;;;;22.74;63.75;157182.56;4896868;29;20279;-71
2023/07/19 10:59:00;;;;;;;10.43;2.33;;;;;;;23.03;63.96;157259.69;4912924;29;20485;-72
2023/07/19 11:01:28;;;;;;;5.80;2.13;;;;;;;22.94;63.90;157234.88;4898660;29;20036;-71
2023/07/19 11:03:54;;;;;;;10.95;2.50;;;;;;;23.02;64.36;157255.75;4919005;29;20031;-71
2023/07/19 11:06:20;;;;;;;7.93;2.38;;;;;;;23.09;64.97;157274.03;4914870;29;20028;-71
2023/07/19 11:08:45;;;;;;;6.47;2.20;;;;;;;22.82;66.39;157203.47;4916083;29;20110;-71
2023/07/19 11:11:14;;;;;;;17.13;3.47;;;;;;;22.63;73.23;157153.84;4903578;29;20111;-72
2023/07/19 11:13:39;;;;;;;8.20;2.78;;;;;;;22.06;76.08;157006.16;4913879;29;20032;-72
2023/07/19 11:16:05;;;;;;;14.27;2.80;;;;;;;21.85;79.84;156949.97;4915528;29;20083;-72